createdAt,value
2018-04-09T00:04:01.090Z,98598.46
2018-04-09T00:10:05.455Z,98605.47
2018-04-09T00:16:10.581Z,98593.11
2018-04-09T00:22:14.942Z,98586.42
2018-04-09T00:28:20.043Z,98588.86
2018-04-09T00:34:24.394Z,98586.45
2018-04-09T00:40:28.763Z,98585.05
2018-04-09T00:46:33.131Z,98579.83
2018-04-09T00:52:38.252Z,98577.64
2018-04-09T00:58:42.611Z,98572.50
2018-04-09T01:04:47.005Z,98560.39
2018-04-09T01:10:51.355Z,98556.00
2018-04-09T01:16:55.719Z,98547.78
2018-04-09T01:23:00.085Z,98550.47
2018-04-09T01:29:04.426Z,98552.95
2018-04-09T01:35:08.775Z,98543.94
2018-04-09T01:41:13.893Z,98539.09
2018-04-09T01:47:19.009Z,98526.91
2018-04-09T01:53:23.349Z,98535.73
2018-04-09T01:59:27.698Z,98529.58
2018-04-09T02:05:32.062Z,98534.83
2018-04-09T02:11:36.415Z,98532.17
2018-04-09T02:17:40.790Z,98523.95
2018-04-09T02:23:45.146Z,98519.94
2018-04-09T02:29:50.255Z,98519.42
2018-04-09T02:35:54.627Z,98515.77
2018-04-09T02:41:58.973Z,98524.19
2018-04-09T02:48:03.327Z,98518.58
2018-04-09T02:54:08.576Z,98515.11
2018-04-09T03:00:12.914Z,98512.30
2018-04-09T03:06:17.271Z,98517.25
2018-04-09T03:12:22.389Z,98514.73
2018-04-09T03:18:26.753Z,98510.45
2018-04-09T03:24:31.094Z,98514.72
2018-04-09T03:30:36.215Z,98512.13
2018-04-09T03:36:40.559Z,98512.56
2018-04-09T03:42:44.885Z,98506.81
2018-04-09T03:48:49.256Z,98521.08
2018-04-09T03:54:53.594Z,98521.90
2018-04-09T04:00:57.941Z,98519.78
2018-04-09T04:07:02.308Z,98528.26
2018-04-09T04:13:06.632Z,98535.80
2018-04-09T04:19:28.694Z,98531.36
2018-04-09T04:25:33.025Z,98524.11
2018-04-09T04:31:37.344Z,98520.59
2018-04-09T04:37:41.691Z,98527.88
2018-04-09T04:43:46.020Z,98528.16
2018-04-09T04:49:50.362Z,98529.23
2018-04-09T04:55:54.694Z,98533.42
2018-04-09T05:01:59.047Z,98539.28
2018-04-09T05:08:03.386Z,98538.58
2018-04-09T05:14:07.733Z,98537.02
2018-04-09T05:20:12.068Z,98534.56
2018-04-09T05:26:16.422Z,98542.21
2018-04-09T05:32:20.770Z,98541.28
2018-04-09T05:38:25.140Z,98531.28
2018-04-09T05:44:30.248Z,98527.69
2018-04-09T05:50:34.601Z,98530.39
2018-04-09T05:56:38.943Z,98542.22
2018-04-09T06:02:43.284Z,98540.50
2018-04-09T06:08:47.628Z,98538.33
2018-04-09T06:14:51.997Z,98529.41
2018-04-09T06:20:57.105Z,98533.24
2018-04-09T06:27:01.458Z,98530.48
2018-04-09T06:33:05.802Z,98527.72
2018-04-09T06:39:10.160Z,98522.86
2018-04-09T06:45:14.531Z,98528.73
2018-04-09T06:51:18.899Z,98520.04
2018-04-09T06:57:23.246Z,98514.09
2018-04-09T07:03:27.598Z,98500.94
2018-04-09T07:09:31.950Z,98495.17
2018-04-09T07:15:36.306Z,98489.02
2018-04-09T07:21:40.644Z,98481.86
2018-04-09T07:27:45.019Z,98488.19
2018-04-09T07:33:50.132Z,98487.55
2018-04-09T07:39:54.494Z,98480.09
2018-04-09T07:45:58.840Z,98470.51
2018-04-09T07:52:03.994Z,98472.28
2018-04-09T07:58:08.354Z,98470.77
2018-04-09T08:04:13.473Z,98462.49
2018-04-09T08:10:17.836Z,98444.38
2018-04-09T08:16:22.196Z,98436.17
2018-04-09T08:22:27.310Z,98437.11
2018-04-09T08:28:31.653Z,98426.19
2018-04-09T08:34:36.011Z,98435.23
2018-04-09T08:40:40.355Z,98443.21
2018-04-09T08:46:44.693Z,98447.61
2018-04-09T08:52:49.079Z,98444.50
2018-04-09T08:58:53.432Z,98450.92
2018-04-09T09:04:57.772Z,98455.61
2018-04-09T09:11:02.141Z,98453.42
2018-04-09T09:17:06.491Z,98447.60
2018-04-09T09:23:10.838Z,98445.64
2018-04-09T09:29:15.189Z,98440.30
2018-04-09T09:35:19.541Z,98447.79
2018-04-09T09:41:24.655Z,98443.03
2018-04-09T09:47:29.775Z,98443.19
2018-04-09T09:53:34.127Z,98440.53
2018-04-09T09:59:38.473Z,98440.52
2018-04-09T10:05:42.826Z,98443.27
2018-04-09T10:11:47.177Z,98433.11
2018-04-09T10:17:51.531Z,98427.06
2018-04-09T10:23:55.887Z,98428.20
2018-04-09T10:30:00.228Z,98420.23
2018-04-09T10:36:04.574Z,98416.56
2018-04-09T10:42:09.686Z,98407.45
2018-04-09T10:48:14.028Z,98403.45
2018-04-09T10:54:18.374Z,98398.37
2018-04-09T11:00:22.721Z,98385.55
2018-04-09T11:06:27.055Z,98380.92
2018-04-09T11:12:31.400Z,98372.64
2018-04-09T11:18:35.733Z,98358.43
2018-04-09T11:24:40.082Z,98353.47
2018-04-09T11:30:44.436Z,98338.95
2018-04-09T11:36:48.816Z,98340.35
2018-04-09T11:42:53.935Z,98330.77
2018-04-09T11:48:58.284Z,98322.76
2018-04-09T11:55:02.646Z,98314.46
2018-04-09T12:01:08.575Z,98300.92
2018-04-09T12:07:12.925Z,98301.81
2018-04-09T12:13:17.262Z,98299.40
2018-04-09T12:19:21.634Z,98291.19
2018-04-09T12:25:25.998Z,98279.39
2018-04-09T12:31:31.116Z,98270.45
2018-04-09T12:37:35.476Z,98278.19
2018-04-09T12:43:39.829Z,98272.34
2018-04-09T12:49:44.941Z,98264.81
2018-04-09T12:55:49.297Z,98279.73
2018-04-09T13:01:53.663Z,98275.39
2018-04-09T13:07:57.998Z,98275.34
2018-04-09T13:14:02.352Z,98274.34
2018-04-09T13:20:07.460Z,98272.83
2018-04-09T13:26:11.834Z,98266.52
2018-04-09T13:32:16.199Z,98265.16
2018-04-09T13:38:22.102Z,98263.30
2018-04-09T13:44:26.455Z,98256.53
2018-04-09T13:50:30.803Z,98256.42
2018-04-09T13:56:35.924Z,98251.88
2018-04-09T14:02:40.275Z,98246.02
2018-04-09T14:08:44.648Z,98243.52
2018-04-09T14:14:48.978Z,98243.35
2018-04-09T14:20:53.338Z,98237.90
2018-04-09T14:26:57.684Z,98234.56
2018-04-09T14:33:02.049Z,98236.28
2018-04-09T14:39:06.434Z,98231.00
2018-04-09T14:45:10.813Z,98218.77
2018-04-09T14:51:15.227Z,98225.28
2018-04-09T14:57:19.610Z,98220.48
2018-04-09T15:03:24.040Z,98218.94
2018-04-09T15:09:28.423Z,98217.17
2018-04-09T15:15:32.804Z,98221.67
2018-04-09T15:21:37.233Z,98218.30
2018-04-09T15:27:41.608Z,98218.53
2018-04-09T15:33:46.793Z,98210.23
2018-04-09T15:39:51.954Z,98204.22
2018-04-09T15:45:57.179Z,98200.08
2018-04-09T15:52:01.562Z,98199.72
2018-04-09T15:58:05.953Z,98211.36
2018-04-09T16:04:10.371Z,98215.72
2018-04-09T16:10:14.767Z,98202.97
2018-04-09T16:16:19.194Z,98199.33
2018-04-09T16:22:23.581Z,98202.48
2018-04-09T16:28:27.997Z,98210.45
2018-04-09T16:34:33.150Z,98204.80
2018-04-09T16:40:37.526Z,98197.38
2018-04-09T16:46:41.916Z,98195.98
2018-04-09T16:52:46.325Z,98195.87
2018-04-09T16:58:50.741Z,98192.84
2018-04-09T17:04:55.937Z,98191.39
2018-04-09T17:11:00.328Z,98188.43
2018-04-09T17:17:04.704Z,98181.98
2018-04-09T17:23:09.085Z,98184.48
2018-04-09T17:29:13.523Z,98179.57
2018-04-09T17:35:17.880Z,98173.97
2018-04-09T17:41:22.239Z,98173.77
2018-04-09T17:47:26.597Z,98184.00
2018-04-09T17:53:31.731Z,98189.27
2018-04-09T17:59:36.088Z,98193.83
2018-04-09T18:05:41.198Z,98207.80
2018-04-09T18:11:45.569Z,98206.38
2018-04-09T18:17:49.922Z,98208.79
2018-04-09T18:23:54.264Z,98209.22
2018-04-09T18:29:59.390Z,98205.42
2018-04-09T18:36:04.146Z,98203.27
2018-04-09T18:42:08.483Z,98214.77
2018-04-09T18:48:12.842Z,98215.86
2018-04-09T18:54:17.209Z,98215.59
2018-04-09T19:00:22.326Z,98219.66
2018-04-09T19:06:26.681Z,98227.55
2018-04-09T19:12:31.033Z,98229.91
2018-04-09T19:18:35.383Z,98223.89
2018-04-09T19:24:40.488Z,98232.87
2018-04-09T19:30:44.841Z,98229.72
2018-04-09T19:36:54.581Z,98221.48
2018-04-09T19:42:58.952Z,98212.83
2018-04-09T19:49:03.308Z,98218.97
2018-04-09T19:55:07.657Z,98227.02
2018-04-09T20:01:12.018Z,98230.97
2018-04-09T20:07:17.172Z,98225.99
2018-04-09T20:13:22.294Z,98226.33
2018-04-09T20:19:27.418Z,98229.72
2018-04-09T20:25:31.759Z,98228.94
2018-04-09T20:31:36.117Z,98218.50
2018-04-09T20:37:40.480Z,98213.84
2018-04-09T20:43:44.863Z,98220.02
2018-04-09T20:49:49.976Z,98219.48
2018-04-09T20:55:54.357Z,98209.27
2018-04-09T21:01:59.477Z,98213.42
2018-04-09T21:08:03.828Z,98205.46
2018-04-09T21:14:08.937Z,98209.42
2018-04-09T21:20:13.299Z,98212.05
2018-04-09T21:26:17.657Z,98207.05
2018-04-09T21:32:21.999Z,98204.95
2018-04-09T21:38:26.352Z,98195.13
2018-04-09T21:44:30.716Z,98186.22
2018-04-09T21:50:35.830Z,98186.62
2018-04-09T21:56:40.195Z,98184.66
2018-04-09T22:02:44.588Z,98188.51
2018-04-09T22:08:48.952Z,98188.19
2018-04-09T22:14:53.308Z,98196.48
2018-04-09T22:20:57.647Z,98200.67
2018-04-09T22:27:02.008Z,98200.80
2018-04-09T22:33:06.370Z,98202.30
2018-04-09T22:39:11.838Z,98204.42
2018-04-09T22:45:16.945Z,98207.23
2018-04-09T22:51:21.294Z,98210.20
2018-04-09T22:57:25.656Z,98204.95
2018-04-09T23:03:29.995Z,98200.70
2018-04-09T23:09:34.342Z,98202.25
2018-04-09T23:15:38.695Z,98200.63
2018-04-09T23:21:43.807Z,98197.81
2018-04-09T23:27:48.153Z,98195.04
2018-04-09T23:33:52.514Z,98195.05
2018-04-09T23:39:56.858Z,98188.40
2018-04-09T23:46:01.208Z,98187.72
2018-04-09T23:52:05.556Z,98179.73
2018-04-09T23:58:09.949Z,98176.66
